KVPS/VPS METAR and TAF weather

Enter ICAO airport designator
Station Type Date Time Source
KVPS METAR 2023/01/30 12:15 UTC NOAA

KVPS 301215Z AUTO 26007KT 5/8SM R12/3500V4500FT BR VV002 20/20 A3010 RMK AO2 CIG 001 RWY02 CIG 001 RWY20 CIG 001 RWY30 SLP199 FZRANO $


Station Type Date Time Source
KVPS Decoded METAR 2023/01/30 12:15 UTC NOAA

Valparaiso / Eglin Air Force Base, FL, United States (KVPS) 30-29N 086-31W 29M
Jan 30, 2023 - 07:15 AM EST / 2023.01.30 1215 UTC
Wind: from the W (260 degrees) at 8 MPH (7 KT) (direction variable):0
Visibility: 5/8 mile(s):0
Sky conditions: obscured
Weather: mist
Temperature: 68 F (20 C)
Dew Point: 68 F (20 C)
Relative Humidity: 100%
Pressure (altimeter): 30.1 in. Hg (1019 hPa)
ob: KVPS 301215Z AUTO 26007KT 5/8SM R12/3500V4500FT BR VV002 20/20 A3010 RMK AO2 CIG 001 RWY02 CIG 001 RWY20 CIG 001 RWY30 SLP199 FZRANO
cycle: 12

Station Type Date Time Source
KVPS TAF 2023/01/30 10:09 UTC NOAA

TAF KVPS 301000Z 3010/3116 18009KT 9999 OVC005 QNH3005INS
BECMG 3010/3011 24006KT 0800 FG VV001 QNH3007INS
BECMG 3015/3016 25006KT 4800 BR BKN008 QNH3009INS
BECMG 3017/3018 26012KT 9999 NSW BKN010 QNH3007INS
BECMG 3102/3103 19006KT 1600 BR BKN008 QNH3011INS
BECMG 3104/3105 VRB03KT 0800 FG VV001 QNH3010INS
BECMG 3115/3116 33009KT 9999 NSW BKN010 QNH2014INS TX23/3022Z TN17/3110Z

Example: see airport list